sensor_id;sensor_type;location;lat;lon;timestamp;P1;durP1;ratioP1;P2;durP2;ratioP2
17193;SDS011;8713;48.388;10.928;2022-12-07T00:00:18;4.32;;;2.65;;
17193;SDS011;8713;48.388;10.928;2022-12-07T00:01:48;4.78;;;2.45;;
17193;SDS011;8713;48.388;10.928;2022-12-07T00:03:18;3.70;;;2.33;;
17193;SDS011;8713;48.388;10.928;2022-12-07T00:04:48;4.43;;;2.28;;
17193;SDS011;8713;48.388;10.928;2022-12-07T00:06:18;3.58;;;2.45;;
17193;SDS011;8713;48.388;10.928;2022-12-07T00:07:49;4.25;;;2.55;;
17193;SDS011;8713;48.388;10.928;2022-12-07T00:09:18;4.20;;;2.97;;
17193;SDS011;8713;48.388;10.928;2022-12-07T00:10:48;2.80;;;2.05;;
17193;SDS011;8713;48.388;10.928;2022-12-07T00:12:18;5.30;;;2.33;;
17193;SDS011;8713;48.388;10.928;2022-12-07T00:13:51;4.15;;;2.65;;
17193;SDS011;8713;48.388;10.928;2022-12-07T00:15:24;3.33;;;2.33;;
17193;SDS011;8713;48.388;10.928;2022-12-07T00:16:54;3.47;;;2.42;;
17193;SDS011;8713;48.388;10.928;2022-12-07T00:18:23;5.18;;;2.50;;
17193;SDS011;8713;48.388;10.928;2022-12-07T00:19:53;5.07;;;2.63;;
17193;SDS011;8713;48.388;10.928;2022-12-07T00:21:23;6.22;;;2.67;;
17193;SDS011;8713;48.388;10.928;2022-12-07T00:22:55;3.90;;;2.28;;
17193;SDS011;8713;48.388;10.928;2022-12-07T00:24:25;4.18;;;2.55;;
17193;SDS011;8713;48.388;10.928;2022-12-07T00:25:54;3.33;;;2.47;;
17193;SDS011;8713;48.388;10.928;2022-12-07T00:27:24;3.63;;;2.50;;
17193;SDS011;8713;48.388;10.928;2022-12-07T00:28:55;3.25;;;2.33;;
17193;SDS011;8713;48.388;10.928;2022-12-07T00:30:30;3.00;;;2.13;;
17193;SDS011;8713;48.388;10.928;2022-12-07T00:32:00;5.15;;;2.70;;
17193;SDS011;8713;48.388;10.928;2022-12-07T00:33:29;3.53;;;2.15;;
17193;SDS011;8713;48.388;10.928;2022-12-07T00:34:59;6.25;;;2.60;;
17193;SDS011;8713;48.388;10.928;2022-12-07T00:36:29;4.40;;;2.90;;
17193;SDS011;8713;48.388;10.928;2022-12-07T00:37:59;3.53;;;2.42;;
17193;SDS011;8713;48.388;10.928;2022-12-07T00:39:28;4.38;;;2.92;;
17193;SDS011;8713;48.388;10.928;2022-12-07T00:40:59;2.72;;;2.10;;
17193;SDS011;8713;48.388;10.928;2022-12-07T00:42:31;4.25;;;2.60;;
17193;SDS011;8713;48.388;10.928;2022-12-07T00:44:00;3.95;;;2.55;;
17193;SDS011;8713;48.388;10.928;2022-12-07T00:45:30;2.83;;;2.17;;
17193;SDS011;8713;48.388;10.928;2022-12-07T00:46:59;3.50;;;2.50;;
17193;SDS011;8713;48.388;10.928;2022-12-07T00:48:29;3.95;;;2.55;;
17193;SDS011;8713;48.388;10.928;2022-12-07T00:49:58;3.65;;;2.25;;
17193;SDS011;8713;48.388;10.928;2022-12-07T00:51:29;3.92;;;2.72;;
17193;SDS011;8713;48.388;10.928;2022-12-07T00:52:58;4.65;;;2.22;;
17193;SDS011;8713;48.388;10.928;2022-12-07T00:54:28;4.43;;;2.90;;
17193;SDS011;8713;48.388;10.928;2022-12-07T00:55:57;4.43;;;2.42;;
17193;SDS011;8713;48.388;10.928;2022-12-07T00:57:27;3.40;;;2.35;;
17193;SDS011;8713;48.388;10.928;2022-12-07T00:59:01;2.83;;;2.13;;
17193;SDS011;8713;48.388;10.928;2022-12-07T01:00:33;5.53;;;2.58;;
17193;SDS011;8713;48.388;10.928;2022-12-07T01:02:06;3.88;;;2.60;;
17193;SDS011;8713;48.388;10.928;2022-12-07T01:03:36;4.13;;;2.45;;
17193;SDS011;8713;48.388;10.928;2022-12-07T01:05:06;3.20;;;2.20;;
17193;SDS011;8713;48.388;10.928;2022-12-07T01:06:36;3.00;;;2.17;;
17193;SDS011;8713;48.388;10.928;2022-12-07T01:08:06;4.53;;;2.97;;
17193;SDS011;8713;48.388;10.928;2022-12-07T01:09:35;4.75;;;3.17;;
17193;SDS011;8713;48.388;10.928;2022-12-07T01:11:05;3.83;;;2.65;;
17193;SDS011;8713;48.388;10.928;2022-12-07T01:12:37;3.75;;;2.75;;
17193;SDS011;8713;48.388;10.928;2022-12-07T01:14:07;4.32;;;2.45;;
17193;SDS011;8713;48.388;10.928;2022-12-07T01:15:41;3.28;;;2.30;;
17193;SDS011;8713;48.388;10.928;2022-12-07T01:17:12;3.38;;;2.47;;
17193;SDS011;8713;48.388;10.928;2022-12-07T01:18:42;3.17;;;2.17;;
17193;SDS011;8713;48.388;10.928;2022-12-07T01:20:16;2.95;;;2.03;;
17193;SDS011;8713;48.388;10.928;2022-12-07T01:21:46;3.63;;;2.45;;
17193;SDS011;8713;48.388;10.928;2022-12-07T01:23:15;2.83;;;2.28;;
17193;SDS011;8713;48.388;10.928;2022-12-07T01:24:44;3.65;;;2.58;;
17193;SDS011;8713;48.388;10.928;2022-12-07T01:26:17;3.25;;;2.45;;
17193;SDS011;8713;48.388;10.928;2022-12-07T01:27:49;4.25;;;2.67;;
17193;SDS011;8713;48.388;10.928;2022-12-07T01:29:18;3.15;;;2.38;;
17193;SDS011;8713;48.388;10.928;2022-12-07T01:30:58;3.00;;;2.33;;
17193;SDS011;8713;48.388;10.928;2022-12-07T01:32:36;4.82;;;2.97;;
17193;SDS011;8713;48.388;10.928;2022-12-07T01:34:05;4.10;;;2.75;;
17193;SDS011;8713;48.388;10.928;2022-12-07T01:35:35;3.53;;;2.47;;
17193;SDS011;8713;48.388;10.928;2022-12-07T01:37:05;3.85;;;2.60;;
17193;SDS011;8713;48.388;10.928;2022-12-07T01:38:34;3.20;;;2.50;;
17193;SDS011;8713;48.388;10.928;2022-12-07T01:40:05;4.05;;;2.25;;
17193;SDS011;8713;48.388;10.928;2022-12-07T01:41:38;6.25;;;2.28;;
17193;SDS011;8713;48.388;10.928;2022-12-07T01:43:14;2.55;;;2.20;;
17193;SDS011;8713;48.388;10.928;2022-12-07T01:46:48;5.40;;;2.80;;
17193;SDS011;8713;48.388;10.928;2022-12-07T01:48:30;3.25;;;2.30;;
17193;SDS011;8713;48.388;10.928;2022-12-07T01:50:04;4.60;;;2.60;;
17193;SDS011;8713;48.388;10.928;2022-12-07T01:51:34;3.95;;;2.90;;
17193;SDS011;8713;48.388;10.928;2022-12-07T01:53:05;3.58;;;2.47;;
17193;SDS011;8713;48.388;10.928;2022-12-07T01:54:36;3.92;;;2.50;;
17193;SDS011;8713;48.388;10.928;2022-12-07T01:56:06;3.80;;;2.50;;
17193;SDS011;8713;48.388;10.928;2022-12-07T01:57:39;3.72;;;2.45;;
17193;SDS011;8713;48.388;10.928;2022-12-07T01:59:13;3.67;;;2.65;;
17193;SDS011;8713;48.388;10.928;2022-12-07T02:00:42;3.45;;;2.53;;
17193;SDS011;8713;48.388;10.928;2022-12-07T02:02:23;3.40;;;2.53;;
17193;SDS011;8713;48.388;10.928;2022-12-07T02:04:03;3.20;;;2.15;;
17193;SDS011;8713;48.388;10.928;2022-12-07T02:05:33;3.53;;;2.33;;
17193;SDS011;8713;48.388;10.928;2022-12-07T02:07:04;3.13;;;2.30;;
17193;SDS011;8713;48.388;10.928;2022-12-07T02:08:34;3.53;;;2.35;;
17193;SDS011;8713;48.388;10.928;2022-12-07T02:11:47;4.20;;;2.67;;
17193;SDS011;8713;48.388;10.928;2022-12-07T02:13:21;5.32;;;2.47;;
17193;SDS011;8713;48.388;10.928;2022-12-07T02:14:53;3.53;;;2.67;;
17193;SDS011;8713;48.388;10.928;2022-12-07T02:18:20;2.65;;;2.15;;
17193;SDS011;8713;48.388;10.928;2022-12-07T02:20:13;2.97;;;2.15;;
17193;SDS011;8713;48.388;10.928;2022-12-07T02:26:21;2.63;;;2.03;;
17193;SDS011;8713;48.388;10.928;2022-12-07T02:30:09;3.25;;;2.25;;
17193;SDS011;8713;48.388;10.928;2022-12-07T02:33:47;6.07;;;2.38;;
17193;SDS011;8713;48.388;10.928;2022-12-07T02:35:26;4.57;;;2.40;;
17193;SDS011;8713;48.388;10.928;2022-12-07T02:40:10;3.83;;;2.40;;
17193;SDS011;8713;48.388;10.928;2022-12-07T02:43:14;3.35;;;2.20;;
17193;SDS011;8713;48.388;10.928;2022-12-07T02:44:52;3.83;;;2.53;;
17193;SDS011;8713;48.388;10.928;2022-12-07T02:46:27;5.05;;;2.38;;
17193;SDS011;8713;48.388;10.928;2022-12-07T02:47:59;3.30;;;2.30;;
17193;SDS011;8713;48.388;10.928;2022-12-07T02:49:29;3.47;;;2.45;;
17193;SDS011;8713;48.388;10.928;2022-12-07T02:50:59;3.53;;;2.58;;
17193;SDS011;8713;48.388;10.928;2022-12-07T02:52:29;3.33;;;2.33;;
17193;SDS011;8713;48.388;10.928;2022-12-07T02:53:59;4.45;;;2.45;;
17193;SDS011;8713;48.388;10.928;2022-12-07T02:55:30;3.97;;;2.47;;
17193;SDS011;8713;48.388;10.928;2022-12-07T03:03:18;5.15;;;2.60;;
17193;SDS011;8713;48.388;10.928;2022-12-07T03:06:33;3.53;;;2.03;;
17193;SDS011;8713;48.388;10.928;2022-12-07T03:08:13;3.25;;;2.08;;
17193;SDS011;8713;48.388;10.928;2022-12-07T03:11:53;2.63;;;1.90;;
17193;SDS011;8713;48.388;10.928;2022-12-07T03:13:58;2.67;;;1.77;;
17193;SDS011;8713;48.388;10.928;2022-12-07T03:17:18;4.32;;;2.55;;
17193;SDS011;8713;48.388;10.928;2022-12-07T03:19:15;3.03;;;2.38;;
17193;SDS011;8713;48.388;10.928;2022-12-07T03:20:48;4.03;;;2.38;;
17193;SDS011;8713;48.388;10.928;2022-12-07T03:22:19;4.93;;;2.90;;
17193;SDS011;8713;48.388;10.928;2022-12-07T03:23:51;4.47;;;2.45;;
17193;SDS011;8713;48.388;10.928;2022-12-07T03:25:24;4.05;;;2.65;;
17193;SDS011;8713;48.388;10.928;2022-12-07T03:27:00;5.13;;;2.83;;
17193;SDS011;8713;48.388;10.928;2022-12-07T03:28:35;3.42;;;2.10;;
17193;SDS011;8713;48.388;10.928;2022-12-07T03:30:13;4.13;;;2.72;;
17193;SDS011;8713;48.388;10.928;2022-12-07T03:31:51;3.42;;;2.42;;
17193;SDS011;8713;48.388;10.928;2022-12-07T03:33:33;3.97;;;2.08;;
17193;SDS011;8713;48.388;10.928;2022-12-07T03:35:32;3.47;;;2.70;;
17193;SDS011;8713;48.388;10.928;2022-12-07T03:37:08;3.88;;;2.60;;
17193;SDS011;8713;48.388;10.928;2022-12-07T03:38:54;3.08;;;2.20;;
17193;SDS011;8713;48.388;10.928;2022-12-07T03:40:34;3.05;;;2.15;;
17193;SDS011;8713;48.388;10.928;2022-12-07T03:42:13;3.35;;;2.30;;
17193;SDS011;8713;48.388;10.928;2022-12-07T03:43:43;3.22;;;1.85;;
17193;SDS011;8713;48.388;10.928;2022-12-07T03:45:12;4.70;;;2.75;;
17193;SDS011;8713;48.388;10.928;2022-12-07T03:46:50;3.38;;;2.60;;
17193;SDS011;8713;48.388;10.928;2022-12-07T03:50:25;3.67;;;2.13;;
17193;SDS011;8713;48.388;10.928;2022-12-07T03:52:02;3.70;;;2.55;;
17193;SDS011;8713;48.388;10.928;2022-12-07T03:54:06;2.83;;;2.15;;
17193;SDS011;8713;48.388;10.928;2022-12-07T03:55:49;4.85;;;2.40;;
17193;SDS011;8713;48.388;10.928;2022-12-07T03:57:19;3.80;;;2.60;;
17193;SDS011;8713;48.388;10.928;2022-12-07T03:58:50;3.55;;;2.53;;
17193;SDS011;8713;48.388;10.928;2022-12-07T04:00:21;3.13;;;2.13;;
17193;SDS011;8713;48.388;10.928;2022-12-07T04:01:55;4.22;;;2.90;;
17193;SDS011;8713;48.388;10.928;2022-12-07T04:03:30;4.65;;;2.92;;
17193;SDS011;8713;48.388;10.928;2022-12-07T04:04:59;4.22;;;3.10;;
17193;SDS011;8713;48.388;10.928;2022-12-07T04:06:29;3.95;;;2.85;;
17193;SDS011;8713;48.388;10.928;2022-12-07T04:07:59;3.42;;;2.50;;
17193;SDS011;8713;48.388;10.928;2022-12-07T04:09:28;3.65;;;2.72;;
17193;SDS011;8713;48.388;10.928;2022-12-07T04:10:58;4.75;;;2.83;;
17193;SDS011;8713;48.388;10.928;2022-12-07T04:12:28;3.33;;;2.40;;
17193;SDS011;8713;48.388;10.928;2022-12-07T04:13:57;4.65;;;2.85;;
17193;SDS011;8713;48.388;10.928;2022-12-07T04:15:59;3.15;;;2.35;;
17193;SDS011;8713;48.388;10.928;2022-12-07T04:17:29;4.20;;;2.88;;
17193;SDS011;8713;48.388;10.928;2022-12-07T04:18:58;4.85;;;2.92;;
17193;SDS011;8713;48.388;10.928;2022-12-07T04:20:28;5.05;;;2.70;;
17193;SDS011;8713;48.388;10.928;2022-12-07T04:21:58;3.88;;;2.67;;
17193;SDS011;8713;48.388;10.928;2022-12-07T04:23:30;4.10;;;2.70;;
17193;SDS011;8713;48.388;10.928;2022-12-07T04:24:59;3.72;;;2.88;;
17193;SDS011;8713;48.388;10.928;2022-12-07T04:26:28;5.10;;;2.60;;
17193;SDS011;8713;48.388;10.928;2022-12-07T04:27:58;4.25;;;3.08;;
17193;SDS011;8713;48.388;10.928;2022-12-07T04:29:28;5.75;;;3.40;;
17193;SDS011;8713;48.388;10.928;2022-12-07T04:30:57;4.05;;;2.78;;
17193;SDS011;8713;48.388;10.928;2022-12-07T04:32:27;4.45;;;2.95;;
17193;SDS011;8713;48.388;10.928;2022-12-07T04:33:57;3.60;;;2.78;;
17193;SDS011;8713;48.388;10.928;2022-12-07T04:35:27;4.05;;;2.78;;
17193;SDS011;8713;48.388;10.928;2022-12-07T04:36:56;4.35;;;3.03;;
17193;SDS011;8713;48.388;10.928;2022-12-07T04:38:26;5.15;;;3.53;;
17193;SDS011;8713;48.388;10.928;2022-12-07T04:39:55;4.50;;;2.72;;
17193;SDS011;8713;48.388;10.928;2022-12-07T04:41:25;4.80;;;3.13;;
17193;SDS011;8713;48.388;10.928;2022-12-07T04:42:57;5.43;;;3.03;;
17193;SDS011;8713;48.388;10.928;2022-12-07T04:44:27;7.72;;;3.75;;
17193;SDS011;8713;48.388;10.928;2022-12-07T04:45:57;5.32;;;3.67;;
17193;SDS011;8713;48.388;10.928;2022-12-07T04:47:27;4.47;;;3.13;;
17193;SDS011;8713;48.388;10.928;2022-12-07T04:48:57;5.32;;;3.67;;
17193;SDS011;8713;48.388;10.928;2022-12-07T04:50:26;5.18;;;3.13;;
17193;SDS011;8713;48.388;10.928;2022-12-07T04:51:56;4.15;;;2.92;;
17193;SDS011;8713;48.388;10.928;2022-12-07T04:53:26;5.13;;;3.42;;
17193;SDS011;8713;48.388;10.928;2022-12-07T04:54:55;5.05;;;3.22;;
17193;SDS011;8713;48.388;10.928;2022-12-07T04:56:25;5.10;;;3.20;;
17193;SDS011;8713;48.388;10.928;2022-12-07T04:57:55;5.15;;;3.30;;
17193;SDS011;8713;48.388;10.928;2022-12-07T04:59:24;4.60;;;3.35;;
17193;SDS011;8713;48.388;10.928;2022-12-07T05:00:54;5.47;;;3.45;;
17193;SDS011;8713;48.388;10.928;2022-12-07T05:02:24;4.40;;;3.15;;
17193;SDS011;8713;48.388;10.928;2022-12-07T05:03:53;4.95;;;3.28;;
17193;SDS011;8713;48.388;10.928;2022-12-07T05:05:23;4.93;;;3.15;;
17193;SDS011;8713;48.388;10.928;2022-12-07T05:06:53;4.80;;;3.03;;
17193;SDS011;8713;48.388;10.928;2022-12-07T05:08:22;5.10;;;3.25;;
17193;SDS011;8713;48.388;10.928;2022-12-07T05:09:52;5.05;;;3.47;;
17193;SDS011;8713;48.388;10.928;2022-12-07T05:11:21;4.32;;;3.03;;
17193;SDS011;8713;48.388;10.928;2022-12-07T05:13:09;4.10;;;2.83;;
17193;SDS011;8713;48.388;10.928;2022-12-07T05:14:39;5.70;;;3.53;;
17193;SDS011;8713;48.388;10.928;2022-12-07T05:16:08;4.20;;;2.85;;
17193;SDS011;8713;48.388;10.928;2022-12-07T05:17:38;4.60;;;3.33;;
17193;SDS011;8713;48.388;10.928;2022-12-07T05:19:08;6.15;;;4.00;;
17193;SDS011;8713;48.388;10.928;2022-12-07T05:20:38;4.85;;;3.38;;
17193;SDS011;8713;48.388;10.928;2022-12-07T05:22:08;4.88;;;3.47;;
17193;SDS011;8713;48.388;10.928;2022-12-07T05:23:38;4.72;;;3.22;;
17193;SDS011;8713;48.388;10.928;2022-12-07T05:25:08;4.93;;;3.40;;
17193;SDS011;8713;48.388;10.928;2022-12-07T05:26:37;4.93;;;3.20;;
17193;SDS011;8713;48.388;10.928;2022-12-07T05:28:07;6.32;;;3.80;;
17193;SDS011;8713;48.388;10.928;2022-12-07T05:29:36;4.63;;;3.20;;
17193;SDS011;8713;48.388;10.928;2022-12-07T05:31:06;5.15;;;3.22;;
17193;SDS011;8713;48.388;10.928;2022-12-07T05:32:36;4.18;;;3.17;;
17193;SDS011;8713;48.388;10.928;2022-12-07T05:34:06;4.38;;;2.80;;
17193;SDS011;8713;48.388;10.928;2022-12-07T05:35:36;5.10;;;3.25;;
17193;SDS011;8713;48.388;10.928;2022-12-07T05:37:07;5.00;;;3.55;;
17193;SDS011;8713;48.388;10.928;2022-12-07T05:38:36;5.70;;;3.80;;
17193;SDS011;8713;48.388;10.928;2022-12-07T05:40:06;5.28;;;3.47;;
17193;SDS011;8713;48.388;10.928;2022-12-07T05:41:36;5.95;;;3.78;;
17193;SDS011;8713;48.388;10.928;2022-12-07T05:43:24;5.97;;;3.97;;
17193;SDS011;8713;48.388;10.928;2022-12-07T05:44:54;5.57;;;3.60;;
17193;SDS011;8713;48.388;10.928;2022-12-07T05:46:24;5.75;;;3.65;;
17193;SDS011;8713;48.388;10.928;2022-12-07T05:47:53;7.55;;;4.07;;
17193;SDS011;8713;48.388;10.928;2022-12-07T05:49:23;5.82;;;4.32;;
17193;SDS011;8713;48.388;10.928;2022-12-07T05:50:53;5.88;;;4.13;;
17193;SDS011;8713;48.388;10.928;2022-12-07T05:52:23;6.80;;;4.63;;
17193;SDS011;8713;48.388;10.928;2022-12-07T05:53:52;9.18;;;4.75;;
17193;SDS011;8713;48.388;10.928;2022-12-07T05:55:22;5.78;;;4.18;;
17193;SDS011;8713;48.388;10.928;2022-12-07T05:56:52;5.93;;;4.20;;
17193;SDS011;8713;48.388;10.928;2022-12-07T05:58:21;6.93;;;4.60;;
17193;SDS011;8713;48.388;10.928;2022-12-07T06:00:10;5.47;;;3.80;;
17193;SDS011;8713;48.388;10.928;2022-12-07T06:01:41;6.57;;;4.07;;
17193;SDS011;8713;48.388;10.928;2022-12-07T06:03:11;6.03;;;3.85;;
17193;SDS011;8713;48.388;10.928;2022-12-07T06:04:42;6.07;;;4.32;;
17193;SDS011;8713;48.388;10.928;2022-12-07T06:06:14;6.63;;;3.90;;
17193;SDS011;8713;48.388;10.928;2022-12-07T06:07:43;5.38;;;3.63;;
17193;SDS011;8713;48.388;10.928;2022-12-07T06:09:13;5.80;;;4.15;;
17193;SDS011;8713;48.388;10.928;2022-12-07T06:10:43;7.85;;;4.50;;
17193;SDS011;8713;48.388;10.928;2022-12-07T06:12:13;6.30;;;4.07;;
17193;SDS011;8713;48.388;10.928;2022-12-07T06:14:01;7.40;;;4.57;;
17193;SDS011;8713;48.388;10.928;2022-12-07T06:15:30;10.10;;;4.47;;
17193;SDS011;8713;48.388;10.928;2022-12-07T06:16:59;6.82;;;4.45;;
17193;SDS011;8713;48.388;10.928;2022-12-07T06:18:29;6.72;;;4.40;;
17193;SDS011;8713;48.388;10.928;2022-12-07T06:19:59;6.10;;;4.25;;
17193;SDS011;8713;48.388;10.928;2022-12-07T06:21:28;8.00;;;4.90;;
17193;SDS011;8713;48.388;10.928;2022-12-07T06:22:58;8.73;;;4.75;;
17193;SDS011;8713;48.388;10.928;2022-12-07T06:24:27;6.43;;;4.78;;
17193;SDS011;8713;48.388;10.928;2022-12-07T06:25:57;7.43;;;4.10;;
17193;SDS011;8713;48.388;10.928;2022-12-07T06:27:27;6.78;;;4.47;;
17193;SDS011;8713;48.388;10.928;2022-12-07T06:28:57;6.72;;;4.57;;
17193;SDS011;8713;48.388;10.928;2022-12-07T06:30:26;7.30;;;4.53;;
17193;SDS011;8713;48.388;10.928;2022-12-07T06:31:56;6.60;;;4.50;;
17193;SDS011;8713;48.388;10.928;2022-12-07T06:33:26;6.85;;;4.63;;
17193;SDS011;8713;48.388;10.928;2022-12-07T06:34:57;7.35;;;4.47;;
17193;SDS011;8713;48.388;10.928;2022-12-07T06:36:27;5.45;;;4.10;;
17193;SDS011;8713;48.388;10.928;2022-12-07T06:37:56;7.72;;;4.10;;
17193;SDS011;8713;48.388;10.928;2022-12-07T06:39:26;7.05;;;4.35;;
17193;SDS011;8713;48.388;10.928;2022-12-07T06:40:57;7.82;;;3.97;;
17193;SDS011;8713;48.388;10.928;2022-12-07T06:42:26;5.75;;;4.15;;
17193;SDS011;8713;48.388;10.928;2022-12-07T06:43:56;6.57;;;4.25;;
17193;SDS011;8713;48.388;10.928;2022-12-07T06:45:26;6.25;;;4.68;;
17193;SDS011;8713;48.388;10.928;2022-12-07T06:46:55;7.43;;;4.50;;
17193;SDS011;8713;48.388;10.928;2022-12-07T06:48:25;5.95;;;4.20;;
17193;SDS011;8713;48.388;10.928;2022-12-07T06:49:55;6.28;;;4.18;;
17193;SDS011;8713;48.388;10.928;2022-12-07T06:51:25;7.45;;;4.60;;
17193;SDS011;8713;48.388;10.928;2022-12-07T06:52:54;8.23;;;4.70;;
17193;SDS011;8713;48.388;10.928;2022-12-07T06:54:24;6.20;;;4.38;;
17193;SDS011;8713;48.388;10.928;2022-12-07T06:55:54;7.13;;;4.22;;
17193;SDS011;8713;48.388;10.928;2022-12-07T06:57:23;8.63;;;5.28;;
17193;SDS011;8713;48.388;10.928;2022-12-07T06:58:53;8.95;;;5.15;;
17193;SDS011;8713;48.388;10.928;2022-12-07T07:00:22;8.15;;;4.72;;
17193;SDS011;8713;48.388;10.928;2022-12-07T07:01:52;7.50;;;4.85;;
17193;SDS011;8713;48.388;10.928;2022-12-07T07:03:22;6.10;;;4.38;;
17193;SDS011;8713;48.388;10.928;2022-12-07T07:04:51;7.63;;;4.78;;
17193;SDS011;8713;48.388;10.928;2022-12-07T07:06:21;10.30;;;5.40;;
17193;SDS011;8713;48.388;10.928;2022-12-07T07:07:50;8.48;;;5.40;;
17193;SDS011;8713;48.388;10.928;2022-12-07T07:09:20;7.70;;;4.95;;
17193;SDS011;8713;48.388;10.928;2022-12-07T07:10:49;8.07;;;5.25;;
17193;SDS011;8713;48.388;10.928;2022-12-07T07:12:19;8.52;;;5.28;;
17193;SDS011;8713;48.388;10.928;2022-12-07T07:13:49;7.80;;;5.35;;
17193;SDS011;8713;48.388;10.928;2022-12-07T07:15:19;8.02;;;5.35;;
17193;SDS011;8713;48.388;10.928;2022-12-07T07:16:48;7.85;;;4.95;;
17193;SDS011;8713;48.388;10.928;2022-12-07T07:18:18;8.13;;;5.35;;
17193;SDS011;8713;48.388;10.928;2022-12-07T07:19:47;7.97;;;4.95;;
17193;SDS011;8713;48.388;10.928;2022-12-07T07:21:17;8.85;;;5.60;;
17193;SDS011;8713;48.388;10.928;2022-12-07T07:22:46;7.38;;;4.93;;
17193;SDS011;8713;48.388;10.928;2022-12-07T07:24:16;7.43;;;4.95;;
17193;SDS011;8713;48.388;10.928;2022-12-07T07:25:46;8.68;;;4.85;;
17193;SDS011;8713;48.388;10.928;2022-12-07T07:27:16;8.93;;;5.43;;
17193;SDS011;8713;48.388;10.928;2022-12-07T07:28:45;8.52;;;4.80;;
17193;SDS011;8713;48.388;10.928;2022-12-07T07:30:14;7.32;;;5.35;;
17193;SDS011;8713;48.388;10.928;2022-12-07T07:31:44;6.80;;;4.85;;
17193;SDS011;8713;48.388;10.928;2022-12-07T07:33:14;8.73;;;5.50;;
17193;SDS011;8713;48.388;10.928;2022-12-07T07:34:44;7.88;;;5.43;;
17193;SDS011;8713;48.388;10.928;2022-12-07T07:36:14;8.48;;;5.15;;
17193;SDS011;8713;48.388;10.928;2022-12-07T07:37:43;8.95;;;5.13;;
17193;SDS011;8713;48.388;10.928;2022-12-07T07:39:13;7.05;;;4.53;;
17193;SDS011;8713;48.388;10.928;2022-12-07T07:40:42;7.07;;;4.65;;
17193;SDS011;8713;48.388;10.928;2022-12-07T07:42:12;8.07;;;5.07;;
17193;SDS011;8713;48.388;10.928;2022-12-07T07:43:41;6.75;;;4.22;;
17193;SDS011;8713;48.388;10.928;2022-12-07T07:45:11;6.18;;;4.25;;
17193;SDS011;8713;48.388;10.928;2022-12-07T07:46:41;6.88;;;4.35;;
17193;SDS011;8713;48.388;10.928;2022-12-07T07:48:10;6.72;;;4.00;;
17193;SDS011;8713;48.388;10.928;2022-12-07T07:49:40;6.43;;;4.13;;
17193;SDS011;8713;48.388;10.928;2022-12-07T07:51:09;6.57;;;4.18;;
17193;SDS011;8713;48.388;10.928;2022-12-07T07:52:40;6.80;;;4.93;;
17193;SDS011;8713;48.388;10.928;2022-12-07T07:54:09;8.05;;;4.78;;
17193;SDS011;8713;48.388;10.928;2022-12-07T07:55:39;7.93;;;5.03;;
17193;SDS011;8713;48.388;10.928;2022-12-07T07:57:08;7.38;;;4.50;;
17193;SDS011;8713;48.388;10.928;2022-12-07T07:58:38;7.53;;;4.63;;
17193;SDS011;8713;48.388;10.928;2022-12-07T08:00:10;6.70;;;4.82;;
17193;SDS011;8713;48.388;10.928;2022-12-07T08:01:41;8.05;;;4.78;;
17193;SDS011;8713;48.388;10.928;2022-12-07T08:03:11;7.70;;;4.65;;
17193;SDS011;8713;48.388;10.928;2022-12-07T08:04:40;5.68;;;4.15;;
17193;SDS011;8713;48.388;10.928;2022-12-07T08:06:10;6.65;;;4.35;;
17193;SDS011;8713;48.388;10.928;2022-12-07T08:07:40;6.70;;;4.80;;
17193;SDS011;8713;48.388;10.928;2022-12-07T08:09:10;7.30;;;5.07;;
17193;SDS011;8713;48.388;10.928;2022-12-07T08:10:40;7.45;;;4.95;;
17193;SDS011;8713;48.388;10.928;2022-12-07T08:12:09;8.13;;;5.28;;
17193;SDS011;8713;48.388;10.928;2022-12-07T08:13:38;7.85;;;4.97;;
17193;SDS011;8713;48.388;10.928;2022-12-07T08:15:08;8.48;;;5.40;;
17193;SDS011;8713;48.388;10.928;2022-12-07T08:16:38;7.03;;;4.53;;
17193;SDS011;8713;48.388;10.928;2022-12-07T08:18:08;6.47;;;3.72;;
17193;SDS011;8713;48.388;10.928;2022-12-07T08:19:38;7.05;;;3.72;;
17193;SDS011;8713;48.388;10.928;2022-12-07T08:21:09;5.57;;;3.67;;
17193;SDS011;8713;48.388;10.928;2022-12-07T08:22:42;5.40;;;4.00;;
17193;SDS011;8713;48.388;10.928;2022-12-07T08:24:12;5.95;;;3.65;;
17193;SDS011;8713;48.388;10.928;2022-12-07T08:25:42;6.07;;;4.28;;
17193;SDS011;8713;48.388;10.928;2022-12-07T08:27:11;5.82;;;3.92;;
17193;SDS011;8713;48.388;10.928;2022-12-07T08:28:42;5.57;;;3.65;;
17193;SDS011;8713;48.388;10.928;2022-12-07T08:30:11;5.97;;;3.45;;
17193;SDS011;8713;48.388;10.928;2022-12-07T08:31:41;6.40;;;4.20;;
17193;SDS011;8713;48.388;10.928;2022-12-07T08:33:11;7.60;;;4.80;;
17193;SDS011;8713;48.388;10.928;2022-12-07T08:34:40;7.43;;;4.50;;
17193;SDS011;8713;48.388;10.928;2022-12-07T08:36:10;5.78;;;4.25;;
17193;SDS011;8713;48.388;10.928;2022-12-07T08:37:41;6.20;;;3.97;;
17193;SDS011;8713;48.388;10.928;2022-12-07T08:39:10;6.10;;;3.92;;
17193;SDS011;8713;48.388;10.928;2022-12-07T08:40:40;8.40;;;5.10;;
17193;SDS011;8713;48.388;10.928;2022-12-07T08:42:09;5.90;;;4.43;;
17193;SDS011;8713;48.388;10.928;2022-12-07T08:43:39;7.40;;;4.90;;
17193;SDS011;8713;48.388;10.928;2022-12-07T08:45:10;7.07;;;4.65;;
17193;SDS011;8713;48.388;10.928;2022-12-07T08:46:50;7.88;;;5.05;;
17193;SDS011;8713;48.388;10.928;2022-12-07T08:48:27;7.95;;;4.88;;
17193;SDS011;8713;48.388;10.928;2022-12-07T08:49:57;6.85;;;4.53;;
17193;SDS011;8713;48.388;10.928;2022-12-07T08:51:32;6.80;;;4.82;;
17193;SDS011;8713;48.388;10.928;2022-12-07T08:53:01;8.13;;;4.63;;
17193;SDS011;8713;48.388;10.928;2022-12-07T08:54:31;7.53;;;4.15;;
17193;SDS011;8713;48.388;10.928;2022-12-07T08:56:04;6.82;;;4.50;;
17193;SDS011;8713;48.388;10.928;2022-12-07T08:57:34;6.13;;;4.63;;
17193;SDS011;8713;48.388;10.928;2022-12-07T08:59:04;8.15;;;4.78;;
17193;SDS011;8713;48.388;10.928;2022-12-07T09:00:34;5.53;;;3.75;;
17193;SDS011;8713;48.388;10.928;2022-12-07T09:02:04;7.22;;;3.78;;
17193;SDS011;8713;48.388;10.928;2022-12-07T09:03:34;7.65;;;5.45;;
17193;SDS011;8713;48.388;10.928;2022-12-07T09:05:04;8.27;;;5.20;;
17193;SDS011;8713;48.388;10.928;2022-12-07T09:06:34;7.05;;;4.28;;
17193;SDS011;8713;48.388;10.928;2022-12-07T09:08:04;7.50;;;4.55;;
17193;SDS011;8713;48.388;10.928;2022-12-07T09:09:34;5.97;;;4.28;;
17193;SDS011;8713;48.388;10.928;2022-12-07T09:11:04;6.55;;;4.15;;
17193;SDS011;8713;48.388;10.928;2022-12-07T09:12:33;6.90;;;4.50;;
17193;SDS011;8713;48.388;10.928;2022-12-07T09:14:03;8.27;;;4.72;;
17193;SDS011;8713;48.388;10.928;2022-12-07T09:15:33;6.10;;;4.15;;
17193;SDS011;8713;48.388;10.928;2022-12-07T09:17:10;8.77;;;3.72;;
17193;SDS011;8713;48.388;10.928;2022-12-07T09:18:41;8.65;;;4.60;;
17193;SDS011;8713;48.388;10.928;2022-12-07T09:20:11;6.88;;;4.28;;
17193;SDS011;8713;48.388;10.928;2022-12-07T09:21:41;6.75;;;4.35;;
17193;SDS011;8713;48.388;10.928;2022-12-07T09:23:11;11.48;;;5.60;;
17193;SDS011;8713;48.388;10.928;2022-12-07T09:24:40;10.23;;;6.43;;
17193;SDS011;8713;48.388;10.928;2022-12-07T09:26:10;13.15;;;7.72;;
17193;SDS011;8713;48.388;10.928;2022-12-07T09:27:39;11.45;;;5.93;;
17193;SDS011;8713;48.388;10.928;2022-12-07T09:29:09;6.88;;;4.72;;
17193;SDS011;8713;48.388;10.928;2022-12-07T09:30:38;7.40;;;4.53;;
17193;SDS011;8713;48.388;10.928;2022-12-07T09:32:07;7.55;;;4.47;;
17193;SDS011;8713;48.388;10.928;2022-12-07T09:33:37;7.68;;;4.60;;
17193;SDS011;8713;48.388;10.928;2022-12-07T09:35:06;6.35;;;4.32;;
17193;SDS011;8713;48.388;10.928;2022-12-07T09:36:36;7.10;;;4.15;;
17193;SDS011;8713;48.388;10.928;2022-12-07T09:38:05;7.13;;;4.05;;
17193;SDS011;8713;48.388;10.928;2022-12-07T09:39:39;6.95;;;4.25;;
17193;SDS011;8713;48.388;10.928;2022-12-07T09:41:09;7.10;;;4.57;;
17193;SDS011;8713;48.388;10.928;2022-12-07T09:42:39;6.93;;;4.15;;
17193;SDS011;8713;48.388;10.928;2022-12-07T09:44:20;6.38;;;4.07;;